Time;durP1;ratioP1;P1;durP2;ratioP2;P2;SDS_P1;SDS_P2;PMS_P1;PMS_P2;Temp;Humidity;BMP_temperature;BMP_pressure;BME280_temperature;BME280_humidity;BME280_pressure;Samples;Min_cycle;Max_cycle;Signal;HPM_P1;HPM_P2
2022/04/11 00:02:16;;;;;;;0.70;0.70;;;5.20;61.80;;;4.39;46.16;95240.81;5009581;28;20195;-85
2022/04/11 00:04:44;;;;;;;0.75;0.75;;;5.30;61.80;;;4.42;46.50;95240.53;5044458;28;20786;-84
2022/04/11 00:07:11;;;;;;;0.80;0.80;;;5.30;61.90;;;4.43;46.60;95234.38;5030683;28;20199;-84
2022/04/11 00:09:38;;;;;;;0.80;0.80;;;5.30;61.80;;;4.43;46.06;95238.72;5029517;28;20271;-83
2022/04/11 00:12:06;;;;;;;0.80;0.80;;;5.40;61.90;;;4.46;46.47;95235.84;5027945;28;20395;-85
2022/04/11 00:14:33;;;;;;;0.70;0.70;;;5.40;61.80;;;4.44;46.61;95229.97;5021060;28;20294;-84
2022/04/11 00:17:00;;;;;;;0.70;0.70;;;5.40;61.80;;;4.52;46.18;95239.63;5058811;28;20231;-85
2022/04/11 00:19:27;;;;;;;0.80;0.80;;;5.40;61.70;;;4.55;46.42;95244.56;5032407;28;20260;-84
2022/04/11 00:21:55;;;;;;;0.80;0.80;;;5.40;61.80;;;4.54;46.51;95227.31;5011012;28;20204;-85
2022/04/11 00:24:22;;;;;;;0.70;0.70;;;5.50;61.80;;;4.59;46.27;95235.50;5059715;28;20311;-85
2022/04/11 00:26:49;;;;;;;0.70;0.70;;;5.50;61.80;;;4.60;46.61;95230.16;5040173;28;20196;-84
2022/04/11 00:29:16;;;;;;;0.80;0.80;;;5.50;61.90;;;4.63;46.36;95231.66;5010496;28;20224;-86
2022/04/11 00:31:43;;;;;;;0.70;0.70;;;5.50;61.80;;;4.60;46.35;95222.38;5050785;28;20196;-85
2022/04/11 00:34:10;;;;;;;0.65;0.65;;;5.50;61.80;;;4.69;46.20;95225.88;5025181;28;20701;-85
2022/04/11 00:36:39;;;;;;;0.70;0.70;;;5.50;61.70;;;4.63;46.17;95211.66;5034225;28;20222;-84
2022/04/11 00:39:06;;;;;;;0.60;0.60;;;5.60;61.80;;;4.73;45.98;95229.78;4998167;28;20231;-84
2022/04/11 00:41:33;;;;;;;0.80;0.80;;;5.60;61.70;;;4.74;46.17;95220.22;5014287;28;20197;-85
2022/04/11 00:44:01;;;;;;;0.70;0.70;;;5.60;61.70;;;4.60;46.04;95205.94;5020076;28;20222;-85
2022/04/11 00:46:28;;;;;;;0.63;0.63;;;5.60;61.70;;;4.67;46.29;95220.00;5050545;28;20200;-85
2022/04/11 00:48:56;;;;;;;0.80;0.80;;;5.60;61.70;;;4.68;46.69;95224.22;5034767;28;20216;-85
2022/04/11 00:51:25;;;;;;;0.70;0.70;;;5.60;61.70;;;4.68;46.53;95228.63;5017656;28;20203;-85
2022/04/11 00:53:57;;;;;;;0.80;0.80;;;5.60;61.70;;;4.65;46.16;95232.31;5017511;28;20231;-85
2022/04/11 00:56:28;;;;;;;0.77;0.77;;;5.60;61.80;;;4.55;45.91;95226.38;5034101;28;20224;-84
2022/04/11 00:59:01;;;;;;;0.70;0.70;;;5.60;61.70;;;4.43;46.35;95220.56;5017742;28;20323;-85
2022/04/11 01:01:29;;;;;;;0.60;0.60;;;5.60;61.50;;;4.41;46.15;95238.09;5034868;28;20204;-85
2022/04/11 01:03:57;;;;;;;0.60;0.60;;;5.50;61.40;;;4.35;46.39;95241.25;5051567;28;20220;-84
2022/04/11 01:06:25;;;;;;;0.73;0.73;;;5.50;61.40;;;4.26;46.16;95235.13;5018041;28;20381;-85
2022/04/11 01:08:54;;;;;;;0.80;0.80;;;5.50;61.50;;;4.19;46.30;95234.06;5048535;28;20221;-86
2022/04/11 01:11:21;;;;;;;0.60;0.60;;;5.40;61.50;;;4.11;46.39;95229.59;5031612;28;20603;-85
2022/04/11 01:13:49;;;;;;;0.60;0.60;;;5.30;61.40;;;4.04;46.34;95234.56;5031375;28;20319;-85
2022/04/11 01:16:27;;;;;;;0.70;0.70;;;5.30;61.50;;;3.91;46.41;95221.91;5022035;28;20210;-85
2022/04/11 01:18:54;;;;;;;0.73;0.73;;;5.20;61.90;;;3.74;46.54;95202.72;5025237;28;20230;-84
2022/04/11 01:21:21;;;;;;;0.70;0.70;;;5.20;61.50;;;3.66;46.53;95202.59;5038017;28;20195;-85
2022/04/11 01:23:49;;;;;;;0.70;0.70;;;5.10;61.50;;;3.78;46.74;95239.56;5038520;28;20191;-84
2022/04/11 01:26:18;;;;;;;0.60;0.60;;;5.00;61.50;;;3.61;46.63;95220.38;5002299;28;20208;-84
2022/04/11 01:28:48;;;;;;;0.80;0.80;;;5.00;61.70;;;3.59;46.59;95235.25;5048291;28;20193;-84
2022/04/11 01:31:16;;;;;;;0.70;0.70;;;4.90;61.70;;;3.55;46.57;95237.31;5018238;28;20201;-84
2022/04/11 01:33:43;;;;;;;0.80;0.80;;;4.80;61.60;;;3.47;46.81;95232.81;5003182;28;20565;-85
2022/04/11 01:36:10;;;;;;;0.73;0.73;;;4.80;61.70;;;3.39;46.67;95227.50;5029325;28;20649;-85
2022/04/11 01:38:37;;;;;;;0.60;0.60;;;4.70;61.60;;;3.35;46.35;95231.34;5025995;28;20226;-85
2022/04/11 01:41:05;;;;;;;0.70;0.70;;;4.60;61.60;;;3.25;47.34;95225.34;5026083;28;20197;-85
2022/04/11 01:43:32;;;;;;;0.70;0.70;;;4.60;61.80;;;3.28;47.77;95230.28;5022791;28;20298;-85
2022/04/11 01:45:59;;;;;;;0.80;0.80;;;4.60;62.10;;;3.25;47.03;95228.78;5027126;28;20191;-84
2022/04/11 01:48:49;;;;;;;0.80;0.80;;;4.50;62.00;;;3.13;47.13;95215.13;5043056;28;20223;-85
2022/04/11 01:51:17;;;;;;;0.80;0.80;;;4.50;62.10;;;3.30;47.29;95234.34;5026229;28;20298;-86
2022/04/11 01:53:44;;;;;;;0.73;0.73;;;4.50;62.30;;;3.26;47.14;95230.41;5041742;28;20195;-85
2022/04/11 01:56:11;;;;;;;0.70;0.70;;;4.40;62.30;;;3.34;47.56;95238.31;5021870;28;20265;-85
2022/04/11 01:58:39;;;;;;;0.68;0.68;;;4.40;62.50;;;3.27;47.36;95224.28;5035602;28;20315;-83
2022/04/11 02:01:06;;;;;;;0.80;0.80;;;4.40;62.70;;;3.33;47.46;95228.06;5027657;28;20203;-84
2022/04/11 02:03:34;;;;;;;0.80;0.80;;;4.40;62.60;;;3.28;47.97;95236.25;5055295;28;20223;-84
2022/04/11 02:06:02;;;;;;;0.60;0.60;;;4.40;62.60;;;3.29;47.01;95239.69;5049519;28;20289;-84
2022/04/11 02:08:29;;;;;;;0.70;0.70;;;4.40;62.60;;;3.20;47.64;95242.16;5058563;28;20231;-84
2022/04/11 02:11:02;;;;;;;0.80;0.80;;;4.40;62.60;;;3.18;47.93;95251.03;5042719;28;20199;-84
2022/04/11 02:13:29;;;;;;;0.75;0.75;;;4.30;62.50;;;3.14;47.92;95253.06;5037147;28;20196;-86
2022/04/11 02:15:56;;;;;;;0.70;0.70;;;4.40;62.60;;;3.09;48.20;95251.81;5054419;28;20283;-84
2022/04/11 02:18:23;;;;;;;0.70;0.70;;;4.30;62.50;;;3.02;47.99;95254.16;5038604;28;20330;-85
2022/04/11 02:20:51;;;;;;;0.80;0.80;;;4.30;62.50;;;2.96;48.59;95257.31;5054858;28;20262;-84
2022/04/11 02:23:18;;;;;;;0.70;0.70;;;4.20;62.70;;;2.84;48.51;95243.66;5050320;28;20296;-84
2022/04/11 02:25:45;;;;;;;0.70;0.70;;;4.20;62.70;;;2.86;48.48;95252.91;5022650;28;20223;-85
2022/04/11 02:28:12;;;;;;;0.70;0.70;;;4.20;62.70;;;2.82;48.61;95264.53;5038528;28;20204;-85
2022/04/11 02:30:39;;;;;;;0.80;0.80;;;4.10;62.70;;;2.58;48.79;95230.44;5054973;28;20248;-84
2022/04/11 02:33:06;;;;;;;0.73;0.73;;;4.10;62.80;;;2.75;49.68;95260.81;5051451;28;20283;-84
2022/04/11 02:35:33;;;;;;;0.80;0.80;;;4.10;63.10;;;2.73;49.47;95267.91;5066933;28;20293;-85
2022/04/11 02:38:00;;;;;;;0.70;0.70;;;4.00;63.10;;;2.68;49.32;95265.72;5042611;28;20690;-84
2022/04/11 02:40:28;;;;;;;0.70;0.70;;;4.00;63.10;;;2.65;49.37;95271.19;5021219;28;20220;-85
2022/04/11 02:43:10;;;;;;;0.80;0.80;;;4.00;63.40;;;2.62;48.98;95266.25;5047188;28;20200;-85
2022/04/11 02:45:44;;;;;;;0.80;0.80;;;3.90;63.10;;;2.55;48.88;95258.22;5021664;28;20222;-84
2022/04/11 02:48:14;;;;;;;0.70;0.70;;;3.90;63.10;;;2.54;48.92;95269.53;5054048;28;20199;-85
2022/04/11 02:50:49;;;;;;;0.80;0.80;;;3.90;63.20;;;2.35;49.31;95253.94;5021367;28;20214;-85
2022/04/11 02:53:20;;;;;;;0.70;0.70;;;3.80;63.20;;;2.44;48.82;95270.44;5052761;28;20200;-85
2022/04/11 02:55:47;;;;;;;0.70;0.70;;;3.80;63.10;;;2.46;49.33;95277.13;5036334;28;20246;-85
2022/04/11 02:58:15;;;;;;;0.70;0.70;;;3.70;63.20;;;2.34;49.20;95265.25;5037832;28;20234;-84
2022/04/11 03:00:43;;;;;;;0.80;0.80;;;3.70;63.20;;;2.36;49.38;95271.13;5053256;28;20216;-85
2022/04/11 03:03:10;;;;;;;0.80;0.80;;;3.70;63.20;;;2.33;49.37;95269.63;5053621;28;20246;-85
2022/04/11 03:05:41;;;;;;;0.80;0.80;;;3.70;63.30;;;2.36;49.66;95277.09;5055318;28;20247;-84
2022/04/11 03:08:10;;;;;;;0.80;0.80;;;3.70;63.40;;;2.33;49.53;95277.38;5053579;28;20192;-84
2022/04/11 03:10:39;;;;;;;0.80;0.80;;;3.60;63.30;;;2.30;49.60;95277.63;5033382;28;20220;-85
2022/04/11 03:13:07;;;;;;;0.80;0.80;;;3.60;63.50;;;2.26;50.00;95278.84;5012684;28;20204;-85
2022/04/11 03:15:36;;;;;;;0.75;0.75;;;3.60;63.60;;;2.20;50.39;95267.25;5010519;28;20219;-84
2022/04/11 03:18:03;;;;;;;0.80;0.80;;;3.60;63.70;;;2.18;51.04;95276.91;5047036;28;20288;-85
2022/04/11 03:20:34;;;;;;;0.80;0.80;;;3.60;64.10;;;2.15;50.94;95269.41;5051215;28;20693;-85
2022/04/11 03:23:01;;;;;;;0.70;0.70;;;3.50;64.00;;;2.03;51.52;95254.94;5050089;28;20265;-85
2022/04/11 03:25:33;;;;;;;0.70;0.70;;;3.50;64.30;;;2.16;51.74;95280.56;5036976;28;20239;-84
2022/04/11 03:28:00;;;;;;;0.70;0.70;;;3.50;64.40;;;2.17;51.63;95289.97;5053326;28;20207;-85
2022/04/11 03:30:30;;;;;;;0.80;0.80;;;3.40;64.40;;;2.12;51.43;95276.63;5038270;28;20211;-84
2022/04/11 03:32:57;;;;;;;0.70;0.70;;;3.40;64.30;;;2.10;51.31;95279.34;5038933;28;20203;-84
2022/04/11 03:35:26;;;;;;;0.70;0.70;;;3.40;64.40;;;2.00;51.05;95266.38;5021223;28;20215;-82
2022/04/11 03:37:53;;;;;;;0.80;0.80;;;3.40;64.30;;;2.00;51.49;95271.53;5032282;28;20569;-83
2022/04/11 03:40:24;;;;;;;0.80;0.80;;;3.40;64.40;;;1.99;51.52;95276.81;5021951;28;20314;-82
2022/04/11 03:42:54;;;;;;;0.70;0.70;;;3.30;64.40;;;2.00;51.36;95283.66;5024522;28;20989;-82
2022/04/11 03:45:21;;;;;;;0.70;0.70;;;3.30;64.50;;;1.91;51.47;95269.72;5033962;28;20778;-83
2022/04/11 03:47:49;;;;;;;0.80;0.80;;;3.30;64.50;;;1.77;51.11;95260.56;5014541;28;20459;-83
2022/04/11 03:50:20;;;;;;;0.80;0.80;;;3.20;64.40;;;1.87;50.97;95281.28;5031120;28;20324;-83
2022/04/11 03:52:47;;;;;;;0.70;0.70;;;3.20;64.30;;;1.79;50.97;95275.94;5050881;28;20200;-81
2022/04/11 03:55:15;;;;;;;0.70;0.70;;;3.20;64.30;;;1.79;51.17;95289.66;5052101;28;20254;-83
2022/04/11 03:57:46;;;;;;;0.80;0.80;;;3.10;64.20;;;1.77;51.15;95291.59;5053022;28;20720;-83
2022/04/11 04:00:14;;;;;;;0.80;0.80;;;3.10;64.30;;;1.74;51.29;95297.00;5068048;28;20226;-82
2022/04/11 04:03:08;;;;;;;0.70;0.70;;;3.10;64.40;;;1.63;50.73;95289.31;5037571;28;20207;-83
2022/04/11 04:05:44;;;;;;;0.80;0.80;;;3.00;64.70;;;1.69;50.40;95299.97;5029476;28;20227;-82
2022/04/11 04:08:17;;;;;;;0.80;0.80;;;3.00;64.50;;;1.63;50.15;95303.06;5023573;28;20195;-83
2022/04/11 04:10:55;;;;;;;0.70;0.70;;;3.00;64.10;;;1.53;50.05;95295.25;5038124;28;20660;-83
2022/04/11 04:13:22;;;;;;;0.80;0.80;;;2.90;64.00;;;1.49;50.12;95309.38;5048610;28;20196;-84
2022/04/11 04:15:50;;;;;;;0.70;0.70;;;2.90;64.00;;;1.41;49.88;95302.22;5002745;28;20774;-82
2022/04/11 04:18:18;;;;;;;0.70;0.70;;;2.80;63.90;;;1.37;49.78;95306.03;5034111;28;20227;-82
2022/04/11 04:20:45;;;;;;;0.80;0.80;;;2.80;63.90;;;1.30;49.86;95306.66;5002585;28;20223;-82
2022/04/11 04:23:12;;;;;;;0.70;0.70;;;2.70;63.80;;;1.24;50.06;95315.72;5052170;28;20433;-83
2022/04/11 04:25:40;;;;;;;0.70;0.70;;;2.70;63.80;;;1.19;49.82;95310.91;5052364;28;20257;-83
2022/04/11 04:28:07;;;;;;;0.80;0.80;;;2.70;63.90;;;1.17;50.24;95306.81;5051827;28;20311;-83
2022/04/11 04:30:36;;;;;;;0.80;0.80;;;2.60;63.90;;;1.09;50.34;95308.25;5034712;28;20238;-83
2022/04/11 04:33:03;;;;;;;0.70;0.70;;;2.60;64.00;;;1.16;50.22;95315.50;5035689;28;20281;-84
2022/04/11 04:35:30;;;;;;;0.80;0.80;;;2.60;64.10;;;1.13;49.91;95311.41;5018703;28;20219;-83
2022/04/11 04:38:03;;;;;;;0.70;0.70;;;2.50;64.10;;;1.14;50.59;95310.47;5016992;28;20233;-84
2022/04/11 04:40:39;;;;;;;0.80;0.80;;;2.50;64.30;;;1.12;50.39;95307.19;5042685;28;20224;-82
2022/04/11 04:43:09;;;;;;;0.80;0.80;;;2.50;64.40;;;1.23;50.80;95322.66;5056817;28;20191;-83
2022/04/11 04:45:37;;;;;;;0.70;0.70;;;2.50;64.50;;;1.27;50.88;95321.47;5004154;28;20223;-84
2022/04/11 04:48:21;;;;;;;0.90;0.90;;;2.50;64.70;;;1.34;51.14;95318.38;5019627;28;20326;-82
2022/04/11 04:50:49;;;;;;;0.80;0.80;;;2.50;64.90;;;1.41;51.17;95322.09;5050676;28;20216;-82
2022/04/11 04:53:18;;;;;;;0.80;0.80;;;2.60;65.10;;;1.48;51.65;95323.25;5050020;28;20200;-84
2022/04/11 04:55:49;;;;;;;0.70;0.70;;;2.60;65.40;;;1.42;51.79;95298.69;5034947;28;20228;-84
2022/04/11 04:58:16;;;;;;;0.63;0.63;;;2.60;65.50;;;1.69;51.82;95328.41;5034679;28;20216;-84
2022/04/11 05:00:44;;;;;;;0.80;0.80;;;2.70;65.60;;;1.69;52.12;95309.50;5048913;28;20801;-83
2022/04/11 05:03:16;;;;;;;0.70;0.70;;;2.70;65.70;;;1.78;53.23;95310.50;5034942;28;20203;-83
2022/04/11 05:05:43;;;;;;;0.80;0.80;;;2.80;66.10;;;1.99;52.87;95325.97;5046036;28;20212;-83
2022/04/11 05:08:12;;;;;;;0.80;0.80;;;2.90;66.30;;;2.08;53.09;95330.41;5008979;28;20221;-84
2022/04/11 05:10:39;;;;;;;0.70;0.70;;;3.00;66.40;;;2.18;53.18;95322.69;5031727;28;20573;-83
2022/04/11 05:13:09;;;;;;;0.80;0.80;;;3.10;66.50;;;2.26;53.23;95322.00;5018441;28;20199;-84
2022/04/11 05:15:36;;;;;;;0.80;0.80;;;3.10;66.60;;;2.39;53.15;95325.19;5061169;28;20216;-82
2022/04/11 05:18:11;;;;;;;0.80;0.80;;;3.20;66.70;;;2.49;52.42;95323.47;5000504;28;20238;-87
2022/04/11 05:20:41;;;;;;;0.80;0.80;;;3.30;66.50;;;2.57;52.34;95328.00;5018365;28;20216;-85
2022/04/11 05:23:09;;;;;;;0.73;0.73;;;3.40;66.50;;;2.67;52.45;95330.59;5018671;28;20246;-86
2022/04/11 05:25:38;;;;;;;0.70;0.70;;;3.50;66.50;;;2.75;52.70;95324.75;5050917;28;20270;-85
2022/04/11 05:28:06;;;;;;;0.75;0.75;;;3.60;66.70;;;2.82;52.78;95324.09;5034931;28;20196;-84
2022/04/11 05:30:36;;;;;;;0.80;0.80;;;3.60;66.50;;;2.92;52.68;95324.13;5051896;28;20224;-85
2022/04/11 05:33:07;;;;;;;0.80;0.80;;;3.70;66.50;;;3.01;52.98;95331.06;5050955;28;20298;-85
2022/04/11 05:35:35;;;;;;;0.60;0.60;;;3.80;66.60;;;3.11;52.95;95330.28;5018869;28;20226;-84
2022/04/11 05:38:08;;;;;;;0.80;0.80;;;3.90;66.40;;;3.17;52.90;95327.97;5029955;28;20200;-84
2022/04/11 05:40:37;;;;;;;0.70;0.70;;;4.00;66.70;;;3.29;53.07;95333.81;5002099;28;20207;-84
2022/04/11 05:43:13;;;;;;;0.80;0.80;;;4.10;66.70;;;3.39;52.98;95328.63;5041147;28;20741;-84
2022/04/11 05:45:42;;;;;;;0.70;0.70;;;4.20;66.80;;;3.39;52.87;95315.66;5031027;28;20678;-83
2022/04/11 05:48:10;;;;;;;0.70;0.70;;;4.20;66.80;;;3.60;52.53;95338.03;5041833;28;20212;-84
2022/04/11 05:50:38;;;;;;;0.80;0.80;;;4.30;66.80;;;3.65;52.46;95328.06;5017465;28;20216;-84
2022/04/11 05:53:06;;;;;;;0.70;0.70;;;4.40;66.80;;;3.77;52.43;95336.53;5043730;28;20203;-85
2022/04/11 05:55:34;;;;;;;0.70;0.70;;;4.50;66.70;;;3.81;51.84;95324.94;5025375;28;20227;-84
2022/04/11 05:58:01;;;;;;;0.73;0.73;;;4.60;66.70;;;3.94;52.16;95332.41;5038712;28;20205;-84
2022/04/11 06:00:29;;;;;;;0.70;0.70;;;4.60;66.50;;;4.01;52.17;95331.69;5040766;28;20223;-84
2022/04/11 06:02:56;;;;;;;0.70;0.70;;;4.70;66.50;;;4.11;51.65;95336.03;5025143;28;20211;-83
2022/04/11 06:05:23;;;;;;;0.60;0.60;;;4.80;66.60;;;4.20;52.03;95332.59;5040332;28;20212;-83
2022/04/11 06:07:50;;;;;;;0.65;0.65;;;4.90;66.70;;;4.24;51.86;95326.16;5044206;28;20287;-84
2022/04/11 06:10:19;;;;;;;0.70;0.70;;;4.90;66.60;;;4.37;51.83;95333.63;5039666;28;20242;-84
2022/04/11 06:12:49;;;;;;;0.82;0.82;;;5.00;66.60;;;4.49;51.87;95339.44;5009450;28;20654;-85
2022/04/11 06:15:18;;;;;;;0.80;0.80;;;5.10;66.50;;;4.53;51.84;95333.03;5053995;28;20213;-84
2022/04/11 06:17:50;;;;;;;0.60;0.60;;;5.20;66.70;;;4.67;51.70;95331.72;5000311;28;20277;-84
2022/04/11 06:20:17;;;;;;;0.70;0.70;;;5.30;66.50;;;4.75;51.50;95339.59;5009173;28;20232;-84
2022/04/11 06:22:46;;;;;;;0.80;0.80;;;5.40;66.60;;;4.69;51.36;95310.78;5019902;28;20744;-84
2022/04/11 06:25:13;;;;;;;0.70;0.70;;;5.40;66.50;;;4.95;51.08;95335.09;5053772;28;20577;-85
2022/04/11 06:27:40;;;;;;;0.70;0.70;;;5.50;66.40;;;4.93;51.21;95312.81;5053413;28;20197;-84
2022/04/11 06:30:08;;;;;;;0.70;0.70;;;5.60;66.50;;;5.14;50.94;95333.38;5036568;28;20215;-85
2022/04/11 06:32:39;;;;;;;0.70;0.70;;;5.70;66.40;;;5.21;51.05;95328.38;5053284;28;20215;-85
2022/04/11 06:35:08;;;;;;;0.60;0.60;;;5.70;66.20;;;5.32;51.00;95330.75;5053253;28;20674;-84
2022/04/11 06:37:35;;;;;;;0.60;0.60;;;5.90;66.30;;;5.25;50.66;95301.94;5056926;28;20200;-85
2022/04/11 06:40:04;;;;;;;0.70;0.70;;;5.90;66.10;;;5.47;50.56;95322.44;5036750;28;20697;-84
2022/04/11 06:42:34;;;;;;;0.70;0.70;;;6.00;65.90;;;5.57;50.35;95323.97;5053314;28;20207;-85
2022/04/11 06:45:05;;;;;;;0.80;0.80;;;6.10;66.80;;;5.66;49.95;95324.84;5021062;28;20285;-85
2022/04/11 06:47:33;;;;;;;0.70;0.70;;;6.20;65.80;;;5.61;49.98;95303.69;5069894;28;20188;-85
2022/04/11 06:50:01;;;;;;;0.75;0.75;;;6.30;66.50;;;5.62;49.56;95292.31;5036947;28;20270;-84
2022/04/11 06:52:28;;;;;;;0.70;0.70;;;6.30;65.50;;;5.90;49.54;95326.00;5052673;28;20208;-84
2022/04/11 06:54:56;;;;;;;0.70;0.70;;;6.40;65.50;;;5.96;49.61;95325.41;5053145;28;20222;-85
2022/04/11 06:57:24;;;;;;;0.70;0.70;;;6.50;65.50;;;6.02;49.51;95321.41;5020494;28;20644;-84
2022/04/11 06:59:51;;;;;;;0.70;0.70;;;6.50;65.40;;;6.12;49.52;95324.72;5036066;28;20318;-84
2022/04/11 07:02:19;;;;;;;0.80;0.80;;;6.60;65.60;;;6.20;49.73;95319.56;5019454;28;20279;-85
2022/04/11 07:04:47;;;;;;;0.60;0.60;;;6.70;65.50;;;6.29;49.43;95327.44;5034777;28;20243;-84
2022/04/11 07:07:14;;;;;;;0.80;0.80;;;6.80;65.60;;;6.37;49.29;95322.25;5036649;28;20192;-85
2022/04/11 07:09:41;;;;;;;0.60;0.60;;;6.80;65.50;;;6.43;49.51;95318.22;5019571;28;20234;-85
2022/04/11 07:12:09;;;;;;;0.50;0.50;;;6.90;65.40;;;6.41;49.10;95302.75;5037004;28;20222;-85
2022/04/11 07:14:36;;;;;;;0.70;0.70;;;6.90;65.30;;;6.56;49.64;95308.16;5053222;28;20215;-84
2022/04/11 07:17:06;;;;;;;0.60;0.60;;;7.00;65.20;;;6.67;49.03;95310.47;5053093;28;20575;-85
2022/04/11 07:19:33;;;;;;;0.60;0.60;;;7.10;65.20;;;6.70;48.83;95301.53;5048488;28;20701;-84
2022/04/11 07:22:00;;;;;;;0.60;0.60;;;7.20;65.20;;;6.88;48.52;95314.47;5003678;28;20235;-85
2022/04/11 07:24:27;;;;;;;0.80;0.80;;;7.20;65.00;;;6.87;48.77;95299.78;5001709;28;20208;-86
2022/04/11 07:26:54;;;;;;;0.60;0.60;;;7.30;65.00;;;7.05;48.55;95313.53;5031970;28;20232;-85
2022/04/11 07:29:22;;;;;;;0.70;0.70;;;7.40;65.00;;;7.17;48.31;95314.03;5026895;28;20225;-85
2022/04/11 07:31:49;;;;;;;0.60;0.60;;;7.50;64.80;;;7.25;48.13;95312.41;5031971;28;20232;-85
2022/04/11 07:34:16;;;;;;;0.60;0.60;;;7.60;64.90;;;7.37;48.08;95317.19;5044733;28;20247;-85
2022/04/11 07:36:43;;;;;;;0.60;0.60;;;7.60;64.80;;;7.47;48.13;95321.41;5032736;28;20203;-85
2022/04/11 07:39:12;;;;;;;0.60;0.60;;;7.80;64.70;;;7.55;48.13;95318.00;5036070;28;20228;-84
2022/04/11 07:41:39;;;;;;;0.80;0.80;;;7.80;64.60;;;7.63;47.72;95312.75;5018898;28;20290;-85
2022/04/11 07:44:07;;;;;;;0.60;0.60;;;7.90;64.60;;;7.71;47.91;95319.78;5035319;28;20216;-86
2022/04/11 07:46:34;;;;;;;0.60;0.60;;;8.00;64.50;;;7.77;47.61;95313.91;5051175;28;20189;-84
2022/04/11 07:49:01;;;;;;;0.60;0.60;;;8.10;64.30;;;7.87;47.55;95319.75;5018619;28;20310;-85
2022/04/11 07:51:28;;;;;;;0.70;0.70;;;8.10;64.20;;;7.95;47.37;95316.34;5068845;28;20226;-84
2022/04/11 07:53:56;;;;;;;0.70;0.70;;;8.20;64.10;;;8.02;47.40;95325.97;5018360;28;20216;-85
2022/04/11 07:56:23;;;;;;;0.63;0.63;;;8.30;64.00;;;8.08;47.04;95321.06;5019009;28;20302;-85
2022/04/11 07:58:50;;;;;;;0.60;0.60;;;8.30;63.80;;;7.95;47.07;95291.03;5003291;28;20352;-86
2022/04/11 08:01:22;;;;;;;0.60;0.60;;;8.40;63.80;;;8.24;47.15;95314.97;5036731;28;20196;-87
2022/04/11 08:03:50;;;;;;;0.80;0.80;;;8.50;63.80;;;8.22;46.78;95298.66;5035712;28;20220;-86
2022/04/11 08:06:17;;;;;;;0.60;0.60;;;8.60;63.90;;;8.45;46.82;95317.84;5033942;28;20211;-86
2022/04/11 08:08:44;;;;;;;0.60;0.60;;;8.60;63.90;;;8.48;47.07;95298.44;5024351;28;20192;-87
2022/04/11 08:11:11;;;;;;;0.60;0.60;;;8.80;64.10;;;8.64;46.75;95313.25;5049464;28;20549;-87
2022/04/11 08:13:47;;;;;;;0.70;0.70;;;8.80;63.80;;;8.73;46.56;95319.28;5032604;28;20613;-86
2022/04/11 08:16:14;;;;;;;0.60;0.60;;;8.90;63.50;;;8.80;46.33;95312.34;5018370;28;20201;-86
2022/04/11 08:18:41;;;;;;;0.60;0.60;;;9.00;63.50;;;8.91;46.48;95314.63;5043499;28;20223;-86
2022/04/11 08:21:09;;;;;;;0.60;0.60;;;9.10;63.30;;;8.99;46.43;95316.34;5042537;28;20193;-87
2022/04/11 08:23:36;;;;;;;0.60;0.60;;;9.10;63.20;;;9.14;46.04;95321.66;5059456;28;20196;-86
2022/04/11 08:26:03;;;;;;;0.70;0.70;;;9.20;63.20;;;9.23;46.16;95315.41;5019082;28;20188;-86
2022/04/11 08:28:30;;;;;;;0.70;0.70;;;9.40;63.30;;;9.37;45.91;95324.31;5043615;28;20193;-86
2022/04/11 08:30:57;;;;;;;0.60;0.60;;;9.40;63.40;;;9.51;45.90;95321.94;5051088;28;20227;-86
2022/04/11 08:33:25;;;;;;;0.60;0.60;;;9.50;63.10;;;9.61;45.34;95319.91;5051040;28;20212;-85
2022/04/11 08:35:52;;;;;;;0.50;0.50;;;9.60;62.90;;;9.69;45.50;95311.97;5030569;28;20231;-85
2022/04/11 08:38:20;;;;;;;0.60;0.60;;;9.70;62.60;;;9.82;45.04;95321.06;5029686;28;20202;-85
2022/04/11 08:40:50;;;;;;;0.60;0.60;;;9.80;63.50;;;9.97;44.95;95319.25;5033866;28;20650;-87
2022/04/11 08:43:23;;;;;;;0.60;0.60;;;9.90;62.70;;;10.13;44.82;95317.47;5038716;28;20219;-84
2022/04/11 08:45:54;;;;;;;0.60;0.60;;;10.10;61.10;;;10.25;44.78;95311.63;5016258;28;20270;-83
2022/04/11 08:48:22;;;;;;;0.50;0.50;;;10.20;61.20;;;10.39;44.34;95314.47;5046976;28;20199;-83
2022/04/11 08:50:50;;;;;;;0.60;0.60;;;10.30;61.30;;;10.51;44.61;95314.81;5041531;28;20215;-83
2022/04/11 08:53:21;;;;;;;0.70;0.70;;;10.40;61.30;;;10.57;43.63;95324.63;5040051;28;20208;-85
2022/04/11 08:55:50;;;;;;;0.60;0.60;;;10.50;60.60;;;10.49;43.87;95301.91;5017627;28;20235;-84
2022/04/11 08:58:18;;;;;;;0.70;0.70;;;10.60;60.70;;;10.61;43.87;95306.66;5025640;28;20208;-84
2022/04/11 09:00:47;;;;;;;0.70;0.70;;;10.70;60.50;;;10.80;43.83;95327.13;5039931;28;20227;-83
2022/04/11 09:03:14;;;;;;;0.60;0.60;;;10.80;60.60;;;10.88;43.66;95318.34;5068024;28;20728;-84
2022/04/11 09:05:42;;;;;;;0.60;0.60;;;10.90;60.40;;;10.93;43.58;95315.97;5017406;28;20288;-83
2022/04/11 09:08:09;;;;;;;0.60;0.60;;;10.90;60.50;;;11.01;43.60;95313.25;5033913;28;20199;-85
2022/04/11 09:10:37;;;;;;;0.60;0.60;;;11.00;60.40;;;11.09;43.37;95317.56;5034639;28;20284;-84
2022/04/11 09:13:09;;;;;;;0.70;0.70;;;11.10;60.40;;;11.21;43.38;95318.69;5033924;28;20222;-83
2022/04/11 09:15:45;;;;;;;0.60;0.60;;;11.20;59.90;;;11.23;42.92;95313.28;5033872;28;20633;-84
2022/04/11 09:18:12;;;;;;;0.80;0.80;;;11.20;59.30;;;11.25;42.92;95298.13;5034328;28;20213;-84
2022/04/11 09:20:43;;;;;;;0.60;0.60;;;11.30;60.20;;;11.49;42.84;95319.81;5016901;28;20227;-84
2022/04/11 09:23:19;;;;;;;0.60;0.60;;;11.40;59.70;;;11.60;42.84;95311.41;5018144;28;20245;-84
2022/04/11 09:25:46;;;;;;;0.60;0.60;;;11.50;59.10;;;11.70;42.75;95308.47;5052008;28;20229;-84
2022/04/11 09:28:14;;;;;;;0.60;0.60;;;11.60;59.90;;;11.77;42.06;95301.47;5050909;28;20202;-84
2022/04/11 09:30:43;;;;;;;0.52;0.52;;;11.70;59.50;;;11.82;42.06;95304.31;5016747;28;20262;-84
2022/04/11 09:33:12;;;;;;;0.52;0.52;;;11.70;59.00;;;11.89;41.87;95303.56;5050475;28;20559;-85
2022/04/11 09:35:44;;;;;;;0.50;0.50;;;11.80;58.60;;;11.85;41.53;95292.63;5018239;28;20269;-84
2022/04/11 09:38:19;;;;;;;0.70;0.70;;;11.90;58.50;;;11.93;41.46;95300.38;5014996;28;20211;-84
2022/04/11 09:40:53;;;;;;;0.50;0.50;;;11.90;58.40;;;11.88;41.09;95289.63;5030367;28;20235;-84
2022/04/11 09:43:30;;;;;;;0.60;0.60;;;12.00;58.00;;;11.94;40.99;95291.47;5009700;28;20194;-83
2022/04/11 09:46:00;;;;;;;0.50;0.50;;;12.00;58.00;;;12.09;41.09;95301.13;5023176;28;20207;-83
2022/04/11 09:48:37;;;;;;;0.50;0.50;;;12.10;58.10;;;12.14;40.89;95293.47;5015509;28;20204;-84
2022/04/11 09:51:13;;;;;;;0.60;0.60;;;12.10;57.90;;;12.26;41.06;95293.75;5026408;28;20200;-84
2022/04/11 09:53:42;;;;;;;0.60;0.60;;;12.20;57.20;;;12.32;41.34;95296.41;5060274;28;20207;-83
2022/04/11 09:56:10;;;;;;;0.60;0.60;;;12.20;57.90;;;12.34;40.55;95283.09;5049169;28;20200;-84
2022/04/11 09:58:40;;;;;;;0.52;0.52;;;12.40;57.90;;;12.45;40.44;95294.88;5036224;28;20226;-83
2022/04/11 10:01:09;;;;;;;0.70;0.70;;;12.40;57.40;;;12.52;40.63;95287.03;5020540;28;20249;-84
2022/04/11 10:03:36;;;;;;;0.60;0.60;;;12.40;57.60;;;12.47;40.64;95262.13;5037976;28;20187;-84
2022/04/11 10:06:05;;;;;;;0.55;0.55;;;12.50;57.70;;;12.63;40.51;95270.66;5001781;28;20208;-83
2022/04/11 10:08:33;;;;;;;0.50;0.50;;;12.50;57.50;;;12.71;39.96;95259.19;5017549;28;20200;-83
2022/04/11 10:11:01;;;;;;;0.50;0.50;;;12.60;57.40;;;12.79;40.13;95248.47;5043466;28;20207;-84
2022/04/11 10:13:31;;;;;;;0.50;0.50;;;12.70;56.90;;;12.98;39.81;95271.41;5036286;28;20703;-84
2022/04/11 10:15:59;;;;;;;0.50;0.50;;;12.80;57.10;;;13.08;39.89;95268.41;5018976;28;20207;-84
2022/04/11 10:18:28;;;;;;;0.80;0.80;;;12.90;58.40;;;13.11;38.96;95262.75;5063929;28;20558;-84
2022/04/11 10:21:03;;;;;;;0.50;0.50;;;12.90;56.50;;;13.12;38.84;95268.81;5004642;28;20227;-84
2022/04/11 10:23:59;;;;;;;0.47;0.47;;;13.00;55.70;;;13.15;39.06;95265.00;5023837;28;20685;-84
2022/04/11 10:26:43;;;;;;;0.60;0.60;;;13.10;55.50;;;13.09;38.86;95246.31;5017685;28;20202;-84
2022/04/11 10:29:37;;;;;;;0.50;0.50;;;13.10;56.30;;;13.22;38.94;95260.53;5047864;28;20614;-84
2022/04/11 10:32:19;;;;;;;0.50;0.50;;;13.20;55.20;;;13.27;38.25;95266.03;5032294;28;20192;-84
2022/04/11 10:34:54;;;;;;;0.50;0.50;;;13.20;54.90;;;13.27;37.40;95252.88;5015184;28;20208;-84
2022/04/11 10:37:28;;;;;;;0.50;0.50;;;13.20;54.30;;;13.25;37.61;95252.25;5045450;28;20261;-83
2022/04/11 10:40:17;;;;;;;0.60;0.60;;;13.30;53.90;;;13.25;37.80;95253.03;5030358;28;20227;-84